Clearwater, FL (33756)

8:37 AM EST on February 25, 2017 (GMT -0500)
S Betty Lane | | Change Station

Elev 18 ft 27.96 °N, 82.78 °W | Updated 2 seconds ago

Overcast
Overcast
67.6 °F
Feels Like 67.6 °F
N
0.0
Wind Variable Wind from NW
Gusts 2.0 mph

Today
High -- | Low -- °F
--% Chance of Precip.
Yesterday
High -- | Low -- °F
Precip. -- in
Pressure 29.92 in
Visibility 5.0 miles
Clouds Overcast 700 ft
Dew Point -16 °F
Humidity 3%
Rainfall 0.00 in
Snow Depth Not available.
6:59 AM 6:29 PM
Waning Crescent, 1% visible
METAR KPIE 251253Z 26007KT 5SM BR OVC007 20/18 A2992 RMK AO2 SLP131 T02000178
Pressure 29.92 in
Visibility 5.0 miles
Clouds Overcast 700 ft
Dew Point -16 °F
Humidity 3%
Rainfall 0.00 in
Snow Depth Not available.
6:59 AM 6:29 PM
Waning Crescent, 1% visible
METAR KPIE 251253Z 26007KT 5SM BR OVC007 20/18 A2992 RMK AO2 SLP131 T02000178

Get Your Daily Forecast Email!

Thanks for signing up!

Be on the lookout for a verification email in your inbox.

You'll start receiving the daily forecast at 8 AM.

×

10-Day Weather Forecast

Almanac

Astronomy

Feb. 25, 2017 Rise Set
Actual Time
Civil Twilight
Nautical Twilight
Astronomical Twilight
Moon
Length of Visible Light
Length of Day
Tomorrow will be .
, % of the Moon is Illuminated

Today's Extremes

State Highs State Lows

Community

WunderPhotos

Upload Photos

1,962,540 photos uploaded!

WunderBlog® & News

Nearby

Air Quality

  Air Quality AQ Index Pollutant
Not available.

Snow Depth

Station Depth Elevation

Earthquake Activity

City Distance Mag. Time & Date
Minimum magnitude displayed is 2.5.

Coastal Water Temperatures

Place Temperature

Stations

Nearby Weather Stations

Station Location Temp. Windchill Dew Point Humidity Wind Precip. Elev Updated Type
                   

Watches & Warnings

There are currently no watches in effect.